Time;durP1;ratioP1;P1;durP2;ratioP2;P2;SDS_P1;SDS_P2;PMS_P1;PMS_P2;Temp;Humidity;BMP_temperature;BMP_pressure;BME280_temperature;BME280_humidity;BME280_pressure;Samples;Min_cycle;Max_cycle;Signal;HPM_P1;HPM_P2
2021/01/24 00:02:08;;;;;;;11.20;6.60;;;;;;;1.71;100.00;93982.78;5023873;28;20293;-70
2021/01/24 00:04:34;;;;;;;11.80;6.73;;;;;;;1.69;100.00;93986.53;5024370;28;20291;-70
2021/01/24 00:07:00;;;;;;;12.10;7.00;;;;;;;1.69;100.00;93989.94;5024189;28;20264;-70
2021/01/24 00:09:26;;;;;;;14.07;7.17;;;;;;;1.69;100.00;93989.94;5025927;28;20217;-70
2021/01/24 00:11:53;;;;;;;14.87;7.30;;;;;;;1.62;100.00;93988.25;5025503;28;20225;-70
2021/01/24 00:14:19;;;;;;;11.77;6.40;;;;;;;1.70;100.00;93983.75;5026421;28;20205;-70
2021/01/24 00:16:45;;;;;;;13.23;7.30;;;;;;;1.61;100.00;93987.44;5024928;28;20236;-69
2021/01/24 00:19:11;;;;;;;10.30;6.57;;;;;;;1.70;100.00;93991.56;5025670;28;20194;-70
2021/01/24 00:21:37;;;;;;;17.37;7.70;;;;;;;1.78;100.00;93986.25;5024957;28;20200;-70
2021/01/24 00:24:04;;;;;;;11.37;6.40;;;;;;;1.66;100.00;93990.28;5023976;28;20649;-69
2021/01/24 00:26:30;;;;;;;13.00;6.97;;;;;;;1.63;100.00;93985.47;5024412;28;20704;-70
2021/01/24 00:28:57;;;;;;;12.63;7.03;;;;;;;1.65;100.00;93988.69;5025047;28;20678;-69
2021/01/24 00:31:23;;;;;;;10.10;6.13;;;;;;;1.68;100.00;93990.13;5024670;28;20216;-70
2021/01/24 00:33:49;;;;;;;12.07;6.67;;;;;;;1.58;100.00;93990.38;5026003;28;20202;-70
2021/01/24 00:36:16;;;;;;;10.63;6.53;;;;;;;1.66;100.00;94002.47;5025693;28;20221;-70
2021/01/24 00:38:42;;;;;;;10.53;6.50;;;;;;;1.56;100.00;94001.94;5025555;28;20202;-70
2021/01/24 00:41:08;;;;;;;12.37;6.70;;;;;;;1.57;100.00;94009.53;5026120;28;20291;-70
2021/01/24 00:43:34;;;;;;;10.73;6.20;;;;;;;1.67;100.00;93994.50;5025223;28;20211;-70
2021/01/24 00:46:01;;;;;;;10.53;6.20;;;;;;;1.74;100.00;94003.19;5025090;28;20735;-70
2021/01/24 00:48:27;;;;;;;10.50;6.50;;;;;;;1.75;100.00;93996.22;5024310;28;20271;-70
2021/01/24 00:50:54;;;;;;;17.50;7.90;;;;;;;1.79;100.00;94006.06;5023990;28;20201;-70
2021/01/24 00:53:20;;;;;;;19.13;7.37;;;;;;;1.80;100.00;94005.06;5023994;28;20285;-70
2021/01/24 00:55:46;;;;;;;27.73;7.23;;;;;;;1.90;100.00;94010.81;5023460;28;20201;-69
2021/01/24 00:58:12;;;;;;;7.03;3.90;;;;;;;1.85;100.00;94019.13;5025875;28;20235;-70
2021/01/24 01:00:38;;;;;;;13.50;4.67;;;;;;;1.90;100.00;94018.59;5025294;28;20295;-70
2021/01/24 01:03:05;;;;;;;16.23;4.93;;;;;;;1.89;100.00;94024.78;5024888;28;20198;-69
2021/01/24 01:05:31;;;;;;;19.17;6.20;;;;;;;1.90;100.00;94026.41;5025301;28;20205;-69
2021/01/24 01:07:57;;;;;;;8.90;3.67;;;;;;;1.85;100.00;94028.72;5028477;28;20261;-70
2021/01/24 01:10:23;;;;;;;10.40;4.33;;;;;;;1.96;100.00;94025.66;5029718;28;20214;-70
2021/01/24 01:12:49;;;;;;;4.77;2.07;;;;;;;1.95;100.00;94029.25;5030481;28;20769;-69
2021/01/24 01:15:15;;;;;;;5.83;3.03;;;;;;;1.94;100.00;94030.25;5029314;28;20268;-70
2021/01/24 01:17:41;;;;;;;6.27;3.53;;;;;;;1.97;100.00;94032.47;5029209;28;20235;-69
2021/01/24 01:20:09;;;;;;;4.80;3.07;;;;;;;1.99;100.00;94040.91;5027915;28;20215;-69
2021/01/24 01:22:36;;;;;;;3.97;2.43;;;;;;;2.01;100.00;94029.34;5027894;28;20194;-69
2021/01/24 01:25:02;;;;;;;4.40;2.50;;;;;;;1.96;100.00;94038.63;5027509;28;20241;-69
2021/01/24 01:27:28;;;;;;;3.93;2.60;;;;;;;1.85;100.00;94039.88;5026763;28;20234;-69
2021/01/24 01:29:54;;;;;;;5.80;2.37;;;;;;;1.88;100.00;94036.13;5027950;28;20232;-70
2021/01/24 01:32:19;;;;;;;2.97;1.80;;;;;;;1.80;100.00;94049.22;5027477;28;20343;-69
2021/01/24 01:34:45;;;;;;;3.03;2.00;;;;;;;1.85;100.00;94062.47;5026902;28;20640;-69
2021/01/24 01:37:12;;;;;;;3.63;2.47;;;;;;;1.84;100.00;94048.66;5025734;28;20340;-70
2021/01/24 01:39:38;;;;;;;3.70;2.10;;;;;;;1.81;100.00;94051.63;5026651;28;20210;-69
2021/01/24 01:42:11;;;;;;;3.50;1.90;;;;;;;1.76;100.00;94047.13;5025717;28;20990;-70
2021/01/24 01:44:36;;;;;;;3.07;2.37;;;;;;;1.68;100.00;94052.41;5025224;28;20216;-69
2021/01/24 01:47:03;;;;;;;2.70;1.80;;;;;;;1.65;100.00;94056.16;5023961;28;20312;-69
2021/01/24 01:49:29;;;;;;;3.67;2.40;;;;;;;1.64;100.00;94057.13;5023560;28;20688;-70
2021/01/24 01:51:55;;;;;;;5.33;2.10;;;;;;;1.55;100.00;94063.38;5023395;28;20306;-69
2021/01/24 01:54:22;;;;;;;2.27;1.73;;;;;;;1.54;100.00;94069.56;5024357;28;20212;-69
2021/01/24 01:56:49;;;;;;;3.60;1.80;;;;;;;1.57;100.00;94065.81;5023796;28;20730;-69
2021/01/24 01:59:15;;;;;;;2.33;2.00;;;;;;;1.58;100.00;94078.63;5024451;28;20199;-69
2021/01/24 02:01:58;;;;;;;2.93;2.00;;;;;;;1.55;100.00;94081.53;5023968;28;20285;-70
2021/01/24 02:04:32;;;;;;;3.00;1.70;;;;;;;1.69;100.00;94079.97;5025609;28;20697;-69
2021/01/24 02:07:02;;;;;;;4.43;3.07;;;;;;;1.59;100.00;94074.22;5023487;28;20963;-70
2021/01/24 02:09:35;;;;;;;2.30;1.77;;;;;;;1.64;100.00;94080.50;5024478;28;20223;-70
2021/01/24 02:12:12;;;;;;;2.77;2.00;;;;;;;1.65;100.00;94078.72;5023059;28;20225;-70
2021/01/24 02:14:41;;;;;;;3.20;2.03;;;;;;;1.71;100.00;94080.63;5025047;28;20198;-70
2021/01/24 02:17:12;;;;;;;2.37;1.90;;;;;;;1.65;100.00;94089.09;5024731;28;20283;-70
2021/01/24 02:19:55;;;;;;;2.60;1.70;;;;;;;1.65;100.00;94078.72;5023883;28;20208;-70
2021/01/24 02:22:23;;;;;;;2.37;2.00;;;;;;;1.62;100.00;94089.47;5025075;28;20197;-70
2021/01/24 02:24:56;;;;;;;1.60;1.40;;;;;;;1.71;100.00;94078.03;5025579;28;20258;-70
2021/01/24 02:27:33;;;;;;;2.67;2.03;;;;;;;1.69;100.00;94082.56;5025489;28;20233;-70
2021/01/24 02:30:24;;;;;;;3.20;1.97;;;;;;;1.70;100.00;94092.78;5024066;28;20220;-70
2021/01/24 02:32:56;;;;;;;2.00;1.70;;;;;;;1.76;100.00;94094.69;5023924;28;20232;-70
2021/01/24 02:35:27;;;;;;;2.53;1.70;;;;;;;1.71;100.00;94091.00;5023728;28;20203;-69
2021/01/24 02:37:54;;;;;;;2.57;1.77;;;;;;;1.59;100.00;94098.41;5023235;28;20224;-69
2021/01/24 02:40:21;;;;;;;1.90;1.70;;;;;;;1.65;100.00;94105.47;5024146;28;20254;-70
2021/01/24 02:42:50;;;;;;;2.37;1.90;;;;;;;1.65;100.00;94104.66;5023914;28;20578;-70
2021/01/24 02:45:18;;;;;;;1.73;1.40;;;;;;;1.70;100.00;94099.75;5022162;28;20203;-70
2021/01/24 02:47:45;;;;;;;3.33;1.93;;;;;;;1.65;100.00;94100.28;5022933;28;20225;-70
2021/01/24 02:50:13;;;;;;;1.47;1.30;;;;;;;1.58;100.00;94103.75;5023893;28;20559;-69
2021/01/24 02:52:41;;;;;;;1.73;1.50;;;;;;;1.70;100.00;94105.75;5023199;28;20266;-69
2021/01/24 02:55:08;;;;;;;3.03;1.83;;;;;;;1.60;100.00;94110.38;5022887;28;20239;-70
2021/01/24 02:57:35;;;;;;;2.57;1.87;;;;;;;1.65;100.00;94109.88;5024246;28;20224;-70
2021/01/24 03:00:01;;;;;;;2.00;1.53;;;;;;;1.71;100.00;94104.78;5024217;28;20209;-69
2021/01/24 03:02:28;;;;;;;1.60;1.50;;;;;;;1.73;100.00;94110.59;5024294;28;20201;-70
2021/01/24 03:04:54;;;;;;;3.47;1.60;;;;;;;1.71;100.00;94109.97;5024661;28;20201;-70
2021/01/24 03:07:20;;;;;;;2.00;1.47;;;;;;;1.58;100.00;94109.75;5024225;28;20333;-70
2021/01/24 03:09:46;;;;;;;2.53;1.80;;;;;;;1.73;100.00;94107.19;5025708;28;20219;-70
2021/01/24 03:12:14;;;;;;;1.67;1.30;;;;;;;1.65;100.00;94115.84;5024722;28;20235;-70
2021/01/24 03:14:42;;;;;;;2.20;1.47;;;;;;;1.72;100.00;94115.94;5025381;28;20207;-70
2021/01/24 03:17:10;;;;;;;1.60;1.40;;;;;;;1.69;100.00;94109.31;5024534;28;20795;-70
2021/01/24 03:19:38;;;;;;;3.73;1.30;;;;;;;1.69;100.00;94104.13;5024649;28;20220;-70
2021/01/24 03:22:05;;;;;;;1.93;1.40;;;;;;;1.73;100.00;94112.38;5024040;28;20574;-70
2021/01/24 03:24:32;;;;;;;2.77;1.83;;;;;;;1.64;100.00;94109.03;5023585;28;20210;-70
2021/01/24 03:26:59;;;;;;;2.17;1.50;;;;;;;1.68;100.00;94117.28;5022739;28;20999;-70
2021/01/24 03:29:25;;;;;;;1.77;1.40;;;;;;;1.69;100.00;94127.50;5025101;28;20218;-70
2021/01/24 03:31:51;;;;;;;2.53;1.60;;;;;;;1.68;100.00;94125.06;5024424;28;20213;-70
2021/01/24 03:34:19;;;;;;;4.47;1.27;;;;;;;1.68;100.00;94136.28;5023424;28;20210;-70
2021/01/24 03:36:48;;;;;;;1.27;1.17;;;;;;;1.81;100.00;94141.69;5023895;28;20230;-70
2021/01/24 03:39:15;;;;;;;3.77;1.30;;;;;;;1.82;100.00;94135.53;5023810;28;20210;-70
2021/01/24 03:41:41;;;;;;;3.33;1.73;;;;;;;1.83;100.00;94140.53;5023486;28;20584;-70
2021/01/24 03:44:07;;;;;;;4.40;1.50;;;;;;;1.87;100.00;94153.94;5023779;28;20924;-69
2021/01/24 03:46:34;;;;;;;1.37;1.20;;;;;;;1.81;100.00;94165.06;5022870;28;20600;-69
2021/01/24 03:49:00;;;;;;;1.80;1.27;;;;;;;1.75;100.00;94178.72;5024848;28;20302;-69
2021/01/24 03:51:26;;;;;;;1.93;1.00;;;;;;;1.70;100.00;94180.22;5025388;28;20208;-69
2021/01/24 03:53:53;;;;;;;2.40;1.50;;;;;;;1.61;100.00;94176.06;5025546;28;20306;-69
2021/01/24 03:56:19;;;;;;;1.40;0.97;;;;;;;1.49;100.00;94190.41;5024907;28;20334;-69
2021/01/24 03:58:45;;;;;;;2.10;0.70;;;;;;;1.42;100.00;94192.88;5025192;28;20204;-70
2021/01/24 04:01:11;;;;;;;0.70;0.70;;;;;;;1.33;100.00;94199.09;5027239;28;20270;-69
2021/01/24 04:03:36;;;;;;;0.60;0.60;;;;;;;1.23;100.00;94202.91;5027393;28;20591;-70
2021/01/24 04:06:03;;;;;;;1.23;0.77;;;;;;;1.29;100.00;94199.63;5025885;28;20687;-70
2021/01/24 04:08:28;;;;;;;1.00;0.80;;;;;;;1.34;100.00;94221.47;5025036;28;20753;-70
2021/01/24 04:10:56;;;;;;;1.43;1.00;;;;;;;1.32;100.00;94226.06;5025895;28;20202;-70
2021/01/24 04:13:22;;;;;;;0.80;0.70;;;;;;;1.33;100.00;94232.81;5025255;28;20816;-70
2021/01/24 04:15:48;;;;;;;0.70;0.70;;;;;;;1.39;100.00;94239.16;5025459;28;20292;-70
2021/01/24 04:18:14;;;;;;;1.00;0.90;;;;;;;1.35;100.00;94243.84;5026374;28;20723;-70
2021/01/24 04:20:40;;;;;;;2.57;0.57;;;;;;;1.46;100.00;94256.44;5025672;28;20580;-70
2021/01/24 04:23:06;;;;;;;0.50;0.50;;;;;;;1.46;100.00;94266.81;5024817;28;20202;-70
2021/01/24 04:25:32;;;;;;;1.03;0.60;;;;;;;1.45;100.00;94260.03;5025233;28;20211;-70
2021/01/24 04:27:59;;;;;;;0.77;0.50;;;;;;;1.36;100.00;94262.81;5025737;28;20313;-70
2021/01/24 04:30:25;;;;;;;0.60;0.57;;;;;;;1.33;100.00;94273.53;5025803;28;20576;-70
2021/01/24 04:32:51;;;;;;;0.60;0.60;;;;;;;1.32;100.00;94271.91;5026000;28;20225;-70
2021/01/24 04:35:17;;;;;;;1.17;0.47;;;;;;;1.30;100.00;94272.09;5024494;28;20206;-70
2021/01/24 04:37:43;;;;;;;0.57;0.57;;;;;;;1.29;100.00;94274.84;5024350;28;20585;-70
2021/01/24 04:40:10;;;;;;;0.50;0.50;;;;;;;1.31;100.00;94276.31;5025039;28;20251;-70
2021/01/24 04:42:37;;;;;;;1.20;0.80;;;;;;;1.29;100.00;94283.44;5026566;28;20197;-70
2021/01/24 04:45:06;;;;;;;0.80;0.70;;;;;;;1.39;100.00;94293.63;5027678;28;20268;-70
2021/01/24 04:47:32;;;;;;;1.13;0.80;;;;;;;1.50;100.00;94294.06;5028093;28;20225;-70
2021/01/24 04:49:58;;;;;;;3.30;1.00;;;;;;;1.45;100.00;94306.72;5028702;28;20205;-69
2021/01/24 04:52:24;;;;;;;0.90;0.67;;;;;;;1.25;100.00;94309.91;5027930;28;20238;-69
2021/01/24 04:54:52;;;;;;;0.50;0.50;;;;;;;1.13;100.00;94320.78;5030505;28;20208;-69
2021/01/24 04:57:19;;;;;;;0.43;0.43;;;;;;;1.14;100.00;94312.03;5029381;28;20741;-69
2021/01/24 04:59:45;;;;;;;0.67;0.60;;;;;;;1.07;100.00;94317.09;5028718;28;20202;-69
2021/01/24 05:02:13;;;;;;;3.50;1.80;;;;;;;1.00;100.00;94330.88;5030235;28;20256;-70
2021/01/24 05:04:39;;;;;;;0.80;0.70;;;;;;;0.92;100.00;94329.09;5029580;28;20230;-70
2021/01/24 05:07:05;;;;;;;0.67;0.50;;;;;;;0.86;100.00;94334.16;5029776;28;20641;-69
2021/01/24 05:09:31;;;;;;;2.50;0.83;;;;;;;0.88;100.00;94330.41;5030180;28;20214;-70
2021/01/24 05:11:57;;;;;;;0.93;0.70;;;;;;;0.82;100.00;94335.44;5029949;28;20229;-69
2021/01/24 05:14:24;;;;;;;2.07;0.87;;;;;;;0.89;100.00;94333.81;5029816;28;20235;-70
2021/01/24 05:16:52;;;;;;;1.57;1.30;;;;;;;0.83;100.00;94337.88;5028367;28;20257;-69
2021/01/24 05:19:20;;;;;;;1.80;0.70;;;;;;;0.82;100.00;94340.63;5028250;28;20206;-69
2021/01/24 05:21:46;;;;;;;1.33;1.07;;;;;;;0.77;100.00;94345.50;5028581;28;20207;-69
2021/01/24 05:24:14;;;;;;;2.13;0.90;;;;;;;0.75;100.00;94345.66;5028348;28;20293;-69
2021/01/24 05:26:43;;;;;;;0.80;0.80;;;;;;;0.71;100.00;94346.97;5028017;28;20232;-69
2021/01/24 05:29:18;;;;;;;1.20;0.73;;;;;;;0.62;100.00;94352.31;5028226;28;20206;-69
2021/01/24 05:31:45;;;;;;;0.73;0.60;;;;;;;0.66;100.00;94345.81;5027795;28;20214;-69
2021/01/24 05:34:11;;;;;;;1.17;0.80;;;;;;;0.58;100.00;94364.78;5026432;28;20862;-69
2021/01/24 05:36:42;;;;;;;3.20;1.20;;;;;;;0.58;100.00;94365.78;5026239;28;20227;-69
2021/01/24 05:39:08;;;;;;;2.43;1.37;;;;;;;0.51;100.00;94375.16;5027081;28;20267;-70
2021/01/24 05:41:34;;;;;;;1.23;0.90;;;;;;;0.50;100.00;94379.53;5026820;28;20293;-69
2021/01/24 05:44:00;;;;;;;7.03;3.43;;;;;;;0.48;100.00;94380.66;5026773;28;20229;-69
2021/01/24 05:46:32;;;;;;;2.00;1.60;;;;;;;0.41;100.00;94392.63;5026171;28;20318;-69
2021/01/24 05:48:58;;;;;;;1.00;0.90;;;;;;;0.38;99.45;94392.94;5027253;28;20201;-69
2021/01/24 05:51:24;;;;;;;0.70;0.70;;;;;;;0.22;99.94;94406.69;5026937;28;20576;-69
2021/01/24 05:53:51;;;;;;;0.87;0.80;;;;;;;0.21;100.00;94401.69;5025399;28;20214;-69
2021/01/24 05:56:18;;;;;;;1.23;0.93;;;;;;;0.18;100.00;94405.41;5026280;28;20736;-69
2021/01/24 05:58:45;;;;;;;1.10;0.70;;;;;;;0.13;100.00;94406.84;5027802;28;20206;-70
2021/01/24 06:01:11;;;;;;;1.60;1.00;;;;;;;0.08;99.81;94415.09;5027656;28;20248;-69
2021/01/24 06:03:37;;;;;;;2.70;1.53;;;;;;;0.05;97.99;94418.00;5027477;28;20214;-70
2021/01/24 06:06:04;;;;;;;14.40;4.27;;;;;;;0.06;99.10;94435.16;5027123;28;20213;-70
2021/01/24 06:08:30;;;;;;;16.17;4.27;;;;;;;-0.14;98.87;94437.34;5028315;28;20259;-70
2021/01/24 06:10:58;;;;;;;4.10;1.37;;;;;;;-0.13;97.91;94438.97;5028148;28;20205;-69
2021/01/24 06:13:25;;;;;;;7.07;2.10;;;;;;;-0.16;97.43;94450.44;5028651;28;20226;-70
2021/01/24 06:15:52;;;;;;;6.03;2.20;;;;;;;-0.29;99.25;94457.84;5028626;28;20341;-70
2021/01/24 06:18:23;;;;;;;2.30;1.30;;;;;;;-0.28;97.53;94451.69;5028104;28;20213;-70
2021/01/24 06:20:53;;;;;;;1.40;1.00;;;;;;;-0.30;96.69;94456.22;5028379;28;20205;-70
2021/01/24 06:23:25;;;;;;;7.83;2.30;;;;;;;-0.27;96.44;94460.25;5028391;28;20191;-70
2021/01/24 06:25:54;;;;;;;4.87;1.73;;;;;;;-0.33;96.73;94466.03;5027968;28;20256;-70
2021/01/24 06:28:24;;;;;;;3.37;1.40;;;;;;;-0.36;94.58;94466.38;5025643;28;20194;-70
2021/01/24 06:30:50;;;;;;;7.23;3.37;;;;;;;-0.62;97.15;94473.34;5024866;28;20194;-70
2021/01/24 06:33:18;;;;;;;3.20;1.10;;;;;;;-0.72;97.70;94472.63;5023693;28;20748;-70
2021/01/24 06:35:45;;;;;;;4.23;2.27;;;;;;;-0.79;98.77;94473.41;5023216;28;20653;-70
2021/01/24 06:38:26;;;;;;;5.40;2.30;;;;;;;-0.83;98.89;94478.03;5022819;28;20222;-70
2021/01/24 06:40:52;;;;;;;4.53;2.37;;;;;;;-0.83;100.00;94478.03;5023623;28;20202;-70
2021/01/24 06:43:37;;;;;;;7.00;2.07;;;;;;;-0.87;99.02;94476.72;5022447;28;20259;-70
2021/01/24 06:46:03;;;;;;;9.13;3.60;;;;;;;-0.91;98.87;94480.59;5022561;28;20288;-70
2021/01/24 06:48:44;;;;;;;6.17;1.77;;;;;;;-0.97;99.01;94490.72;5023309;28;20214;-69
2021/01/24 06:51:33;;;;;;;4.90;2.50;;;;;;;-0.99;100.00;94503.00;5022170;28;20205;-70
2021/01/24 06:53:59;;;;;;;5.13;2.83;;;;;;;-1.01;100.00;94503.13;5023246;28;20271;-70
2021/01/24 06:56:38;;;;;;;5.63;2.90;;;;;;;-1.00;100.00;94507.34;5021792;28;20280;-70
2021/01/24 06:59:05;;;;;;;5.03;2.83;;;;;;;-1.04;100.00;94511.19;5021866;28;20201;-70
2021/01/24 07:01:32;;;;;;;4.70;2.67;;;;;;;-1.09;99.55;94513.41;5022085;28;20209;-70
2021/01/24 07:04:41;;;;;;;8.13;3.20;;;;;;;-1.17;100.00;94520.28;5018499;28;20202;-70
2021/01/24 07:07:36;;;;;;;5.77;3.50;;;;;;;-1.23;100.00;94526.84;5015832;28;20225;-69
2021/01/24 07:10:11;;;;;;;8.07;3.00;;;;;;;-1.19;100.00;94535.13;5018444;28;20556;-70
2021/01/24 07:12:45;;;;;;;8.57;4.30;;;;;;;-1.20;99.75;94536.06;5018270;28;20224;-69
2021/01/24 07:15:21;;;;;;;6.17;3.17;;;;;;;-1.07;99.04;94531.34;5017167;28;20727;-69
2021/01/24 07:17:58;;;;;;;5.20;3.00;;;;;;;-1.19;98.08;94542.88;5017614;28;20606;-69
2021/01/24 07:20:24;;;;;;;9.73;3.40;;;;;;;-1.17;99.34;94535.78;5016977;28;20245;-70
2021/01/24 07:22:54;;;;;;;5.67;2.90;;;;;;;-1.27;98.67;94549.72;5016229;28;20650;-69
2021/01/24 07:25:20;;;;;;;6.77;3.10;;;;;;;-1.26;97.90;94549.59;5016835;28;20256;-69
2021/01/24 07:27:51;;;;;;;4.87;2.80;;;;;;;-1.22;98.58;94549.16;5016584;28;20232;-70
2021/01/24 07:30:23;;;;;;;5.33;2.63;;;;;;;-1.26;98.73;94541.84;5016806;28;21129;-70
2021/01/24 07:32:49;;;;;;;7.10;3.33;;;;;;;-1.25;99.13;94543.44;5017108;28;20225;-69
2021/01/24 07:35:15;;;;;;;6.63;2.97;;;;;;;-1.16;98.47;94548.56;5016571;28;20208;-70
2021/01/24 07:37:42;;;;;;;6.60;3.30;;;;;;;-1.17;98.95;94559.84;5017265;28;20241;-69
2021/01/24 07:40:09;;;;;;;6.87;3.50;;;;;;;-1.13;98.90;94553.41;5017065;28;20209;-69
2021/01/24 07:42:35;;;;;;;6.07;3.23;;;;;;;-1.11;97.63;94561.03;5017114;28;20197;-69
2021/01/24 07:45:02;;;;;;;7.27;3.67;;;;;;;-1.09;97.23;94562.50;5016751;28;20221;-70
2021/01/24 07:47:29;;;;;;;8.47;4.10;;;;;;;-1.11;99.17;94568.78;5016819;28;20256;-70
2021/01/24 07:49:55;;;;;;;6.97;3.80;;;;;;;-1.08;99.74;94566.72;5016358;28;20206;-70
2021/01/24 07:52:21;;;;;;;4.67;2.47;;;;;;;-1.01;98.22;94567.72;5017121;28;20205;-69
2021/01/24 07:54:47;;;;;;;5.80;2.83;;;;;;;-0.91;100.00;94568.47;5016894;28;20816;-70
2021/01/24 07:57:13;;;;;;;5.73;2.93;;;;;;;-0.89;99.43;94574.31;5016588;28;20218;-70
2021/01/24 07:59:40;;;;;;;5.73;3.30;;;;;;;-0.81;99.23;94579.53;5017055;28;20213;-70
2021/01/24 08:02:06;;;;;;;5.07;2.63;;;;;;;-0.82;99.41;94585.66;5017246;28;20198;-70
2021/01/24 08:04:36;;;;;;;4.80;2.60;;;;;;;-0.80;99.04;94588.09;5016355;28;20252;-70
2021/01/24 08:07:05;;;;;;;5.10;3.03;;;;;;;-0.82;99.98;94588.25;5016455;28;20229;-70
2021/01/24 08:09:31;;;;;;;6.00;3.33;;;;;;;-0.71;100.00;94588.03;5016741;28;21061;-70
2021/01/24 08:11:57;;;;;;;3.50;1.73;;;;;;;-0.67;100.00;94591.94;5016781;28;21085;-70
2021/01/24 08:14:23;;;;;;;12.57;2.80;;;;;;;-0.69;100.00;94601.59;5017004;28;20221;-70
2021/01/24 08:16:51;;;;;;;3.67;2.00;;;;;;;-0.53;100.00;94594.78;5015656;28;20743;-70
2021/01/24 08:19:19;;;;;;;5.33;2.70;;;;;;;-0.42;100.00;94598.91;5016765;28;20204;-70
2021/01/24 08:21:47;;;;;;;4.50;2.20;;;;;;;-0.28;100.00;94595.75;5017023;28;20198;-71
2021/01/24 08:24:13;;;;;;;2.30;1.23;;;;;;;-0.26;100.00;94599.03;5016689;28;20736;-70
2021/01/24 08:26:39;;;;;;;4.93;2.90;;;;;;;-0.27;100.00;94605.97;5015670;28;20217;-71
2021/01/24 08:29:07;;;;;;;5.93;3.50;;;;;;;-0.22;100.00;94600.34;5016900;28;20200;-71
2021/01/24 08:31:34;;;;;;;2.97;2.10;;;;;;;-0.27;100.00;94599.97;5017178;28;20212;-70
2021/01/24 08:34:01;;;;;;;3.07;2.17;;;;;;;-0.30;100.00;94602.88;5016006;28;20249;-70
2021/01/24 08:36:29;;;;;;;7.27;3.07;;;;;;;-0.42;100.00;94597.16;5015435;28;21172;-69
2021/01/24 08:38:58;;;;;;;3.27;2.07;;;;;;;-0.39;100.00;94601.22;5017727;28;20201;-70
2021/01/24 08:41:29;;;;;;;9.37;3.97;;;;;;;-0.39;100.00;94602.00;5016607;28;20695;-70
2021/01/24 08:44:02;;;;;;;5.83;3.30;;;;;;;-0.35;100.00;94608.50;5016161;28;20309;-70
2021/01/24 08:46:28;;;;;;;10.27;3.83;;;;;;;-0.30;100.00;94610.66;5015472;28;20226;-70
2021/01/24 08:49:19;;;;;;;24.73;6.47;;;;;;;-0.26;100.00;94601.63;5017207;28;20208;-70
2021/01/24 08:51:50;;;;;;;8.33;3.00;;;;;;;-0.30;99.35;94608.06;5013128;28;20198;-71
2021/01/24 08:54:19;;;;;;;8.73;3.47;;;;;;;-0.17;100.00;94605.88;5016156;28;20601;-70
2021/01/24 08:56:45;;;;;;;5.20;2.80;;;;;;;-0.22;97.91;94608.09;5015741;28;20236;-70
2021/01/24 08:59:22;;;;;;;5.10;3.00;;;;;;;-0.21;97.40;94609.75;5016748;28;20219;-71
2021/01/24 09:01:50;;;;;;;5.33;2.97;;;;;;;-0.21;97.75;94609.75;5016565;28;20274;-70
2021/01/24 09:04:27;;;;;;;3.90;2.80;;;;;;;-0.19;95.89;94600.03;5016613;28;20201;-70
2021/01/24 09:07:10;;;;;;;6.10;2.83;;;;;;;-0.13;94.90;94613.16;5015598;28;20580;-70
2021/01/24 09:09:41;;;;;;;3.60;1.90;;;;;;;-0.14;94.44;94613.31;5015933;28;20235;-70
2021/01/24 09:12:10;;;;;;;5.93;3.23;;;;;;;-0.16;97.02;94613.47;5016695;28;20200;-70
2021/01/24 09:14:36;;;;;;;5.30;3.17;;;;;;;-0.15;94.92;94611.69;5015460;28;20714;-71
2021/01/24 09:17:06;;;;;;;7.93;3.27;;;;;;;-0.01;95.83;94611.97;5015013;28;20221;-70
2021/01/24 09:19:32;;;;;;;8.10;3.27;;;;;;;0.02;93.48;94622.81;5015764;28;20243;-71
2021/01/24 09:21:58;;;;;;;10.70;3.57;;;;;;;0.02;94.11;94622.00;5016274;28;20202;-71
2021/01/24 09:24:24;;;;;;;8.43;3.83;;;;;;;-0.03;93.92;94623.44;5016025;28;20209;-70
2021/01/24 09:26:51;;;;;;;6.57;2.20;;;;;;;-0.01;92.58;94637.84;5015545;28;20590;-73
2021/01/24 09:29:18;;;;;;;8.20;3.20;;;;;;;0.03;92.76;94637.38;5019693;28;20206;-71
2021/01/24 09:31:44;;;;;;;8.20;3.23;;;;;;;0.07;93.52;94636.09;5019876;28;20208;-70
2021/01/24 09:34:11;;;;;;;7.80;2.70;;;;;;;0.20;91.99;94633.91;5020022;28;20222;-71
2021/01/24 09:36:37;;;;;;;5.67;2.67;;;;;;;0.20;92.61;94636.50;5019162;28;20217;-71
2021/01/24 09:39:04;;;;;;;6.27;3.30;;;;;;;0.22;91.00;94639.75;5019580;28;20201;-71
2021/01/24 09:41:30;;;;;;;6.40;3.27;;;;;;;0.27;90.67;94631.53;5019913;28;20208;-70
2021/01/24 09:43:57;;;;;;;7.07;3.83;;;;;;;0.46;92.11;94644.25;5019726;28;20200;-70
2021/01/24 09:46:22;;;;;;;8.50;3.70;;;;;;;0.38;89.75;94639.03;5019238;28;20229;-71
2021/01/24 09:48:48;;;;;;;7.83;3.60;;;;;;;0.37;90.46;94648.59;5018686;28;20202;-70
2021/01/24 09:51:14;;;;;;;9.37;4.20;;;;;;;0.47;91.65;94644.09;5019294;28;20210;-71
2021/01/24 09:53:40;;;;;;;7.23;3.57;;;;;;;0.57;89.44;94649.97;5019315;28;20577;-70
2021/01/24 09:56:07;;;;;;;4.73;2.57;;;;;;;0.63;89.06;94651.94;5018910;28;20198;-70
2021/01/24 09:58:33;;;;;;;5.37;2.73;;;;;;;0.74;89.12;94651.66;5018956;28;20252;-70
2021/01/24 10:01:01;;;;;;;8.37;2.60;;;;;;;0.81;89.05;94642.28;5018490;28;20200;-71
2021/01/24 10:03:27;;;;;;;8.77;3.60;;;;;;;0.85;88.22;94643.59;5018926;28;20292;-70
2021/01/24 10:05:53;;;;;;;6.90;3.23;;;;;;;0.91;88.68;94653.34;5018353;28;20236;-70
2021/01/24 10:08:19;;;;;;;11.13;3.47;;;;;;;0.90;88.49;94646.53;5018977;28;20717;-70
2021/01/24 10:10:46;;;;;;;4.63;2.47;;;;;;;0.98;87.62;94647.38;5019221;28;20208;-70
2021/01/24 10:13:12;;;;;;;5.43;3.00;;;;;;;1.00;90.44;94655.78;5018905;28;20253;-71
2021/01/24 10:15:38;;;;;;;7.00;2.97;;;;;;;1.08;90.81;94660.19;5016613;28;20681;-70
2021/01/24 10:18:06;;;;;;;7.50;2.80;;;;;;;1.17;89.55;94659.22;5019164;28;20338;-71
2021/01/24 10:20:32;;;;;;;5.30;2.93;;;;;;;1.31;88.04;94670.63;5019451;28;20206;-70
2021/01/24 10:22:58;;;;;;;4.97;2.70;;;;;;;1.37;88.24;94667.38;5018219;28;20194;-70
2021/01/24 10:25:24;;;;;;;4.23;2.50;;;;;;;1.68;86.21;94660.59;5018398;28;20727;-70
2021/01/24 10:27:50;;;;;;;4.17;2.60;;;;;;;1.87;85.58;94671.47;5019412;28;20337;-71
2021/01/24 10:30:17;;;;;;;4.53;3.07;;;;;;;2.07;85.21;94672.75;5018306;28;20236;-70
2021/01/24 10:32:43;;;;;;;4.00;2.17;;;;;;;1.96;85.06;94680.06;5018434;28;20233;-70
2021/01/24 10:35:10;;;;;;;4.53;2.67;;;;;;;1.74;85.82;94674.72;5017940;28;20585;-71
2021/01/24 10:37:36;;;;;;;5.27;2.47;;;;;;;1.55;86.46;94680.22;5018827;28;20229;-71
2021/01/24 10:40:04;;;;;;;4.53;2.60;;;;;;;1.62;86.55;94676.81;5018324;28;20246;-70
2021/01/24 10:42:30;;;;;;;4.13;1.97;;;;;;;1.59;85.95;94691.88;5018590;28;20216;-70
2021/01/24 10:44:57;;;;;;;3.80;2.03;;;;;;;1.78;87.11;94676.00;5018658;28;20795;-70
2021/01/24 10:47:23;;;;;;;4.07;2.40;;;;;;;1.74;84.88;94683.31;5020187;28;20247;-71
2021/01/24 10:49:49;;;;;;;4.47;2.80;;;;;;;2.04;85.90;94680.06;5022043;28;20287;-70
2021/01/24 10:52:16;;;;;;;7.77;2.70;;;;;;;1.76;85.91;94676.19;5018744;28;20271;-71
2021/01/24 10:54:42;;;;;;;5.50;2.30;;;;;;;1.73;83.57;94679.06;5018844;28;20869;-71
2021/01/24 10:57:08;;;;;;;6.27;2.40;;;;;;;1.88;83.80;94672.28;5018260;28;20228;-71
2021/01/24 10:59:34;;;;;;;3.37;2.20;;;;;;;1.78;83.07;94676.81;5018328;28;20255;-71
2021/01/24 11:02:00;;;;;;;7.33;2.40;;;;;;;1.96;84.04;94677.44;5019007;28;20288;-71
2021/01/24 11:04:26;;;;;;;4.23;1.97;;;;;;;1.92;83.63;94684.78;5018895;28;20212;-71
2021/01/24 11:06:52;;;;;;;4.47;2.27;;;;;;;2.00;84.48;94671.78;5017381;28;20664;-70
2021/01/24 11:09:18;;;;;;;3.03;2.03;;;;;;;1.97;82.78;94676.50;5018892;28;20228;-69
2021/01/24 11:11:44;;;;;;;3.40;1.90;;;;;;;1.90;83.95;94680.72;5018960;28;20256;-70
2021/01/24 11:14:10;;;;;;;6.93;1.93;;;;;;;2.00;83.54;94681.38;5018613;28;20225;-69
2021/01/24 11:16:36;;;;;;;3.70;2.23;;;;;;;1.99;83.86;94685.75;5017958;28;20228;-70
2021/01/24 11:19:02;;;;;;;3.30;2.23;;;;;;;1.96;83.39;94680.88;5018979;28;20665;-70
2021/01/24 11:21:28;;;;;;;6.40;3.10;;;;;;;2.17;83.84;94685.56;5018321;28;20744;-69
2021/01/24 11:23:54;;;;;;;5.90;2.03;;;;;;;2.17;82.34;94682.97;5018183;28;20216;-69
2021/01/24 11:26:21;;;;;;;5.73;3.10;;;;;;;2.30;81.55;94685.88;5017787;28;20225;-69
2021/01/24 11:28:47;;;;;;;3.93;2.50;;;;;;;2.41;82.33;94681.94;5015973;28;20224;-69
2021/01/24 11:31:13;;;;;;;4.57;3.07;;;;;;;2.54;81.15;94684.84;5014982;28;20285;-70
2021/01/24 11:33:38;;;;;;;6.20;3.10;;;;;;;2.64;81.81;94685.47;5015892;28;20222;-70
2021/01/24 11:36:05;;;;;;;11.40;3.87;;;;;;;2.54;80.10;94673.63;5016273;28;20285;-70
2021/01/24 11:38:31;;;;;;;4.63;2.03;;;;;;;2.42;79.38;94678.38;5017368;28;20880;-69